createdAt,value
2023-11-30T00:02:19.063Z,99329.94
2023-11-30T00:04:47.289Z,99339.53
2023-11-30T00:07:14.907Z,99314.91
2023-11-30T00:09:42.525Z,99306.44
2023-11-30T00:12:12.396Z,99304.25
2023-11-30T00:14:40.059Z,99292.28
2023-11-30T00:17:08.306Z,99317.16
2023-11-30T00:19:37.588Z,99321.16
2023-11-30T00:22:06.329Z,99321.56
2023-11-30T00:24:34.253Z,99311.69
2023-11-30T00:27:02.402Z,99302.06
2023-11-30T00:29:31.448Z,99298.59
2023-11-30T00:31:59.350Z,99300.00
2023-11-30T00:34:27.002Z,99321.09
2023-11-30T00:36:55.328Z,99327.66
2023-11-30T00:39:23.195Z,99305.03
2023-11-30T00:41:51.016Z,99290.88
2023-11-30T00:44:20.375Z,99311.19
2023-11-30T00:46:49.539Z,99300.53
2023-11-30T00:49:17.367Z,99329.00
2023-11-30T00:51:44.973Z,99307.53
2023-11-30T00:54:13.395Z,99356.97
2023-11-30T00:56:41.024Z,99344.00
2023-11-30T00:59:09.642Z,99333.78
2023-11-30T01:01:37.839Z,99343.13
2023-11-30T01:04:07.460Z,99337.66
2023-11-30T01:06:35.151Z,99341.22
2023-11-30T01:09:02.808Z,99338.47
2023-11-30T01:11:31.416Z,99318.53
2023-11-30T01:13:59.105Z,99331.94
2023-11-30T01:16:27.440Z,99321.41
2023-11-30T01:18:55.728Z,99322.41
2023-11-30T01:21:25.431Z,99328.44
2023-11-30T01:23:53.114Z,99324.97
2023-11-30T01:26:21.414Z,99349.19
2023-11-30T01:28:49.181Z,99342.13
2023-11-30T01:31:17.451Z,99319.84
2023-11-30T01:33:45.129Z,99327.44
2023-11-30T01:36:14.545Z,99326.63
2023-11-30T01:38:43.597Z,99319.44
2023-11-30T01:41:11.425Z,99304.47
2023-11-30T01:43:39.084Z,99296.19
2023-11-30T01:46:08.495Z,99328.00
2023-11-30T01:48:36.322Z,99317.22
2023-11-30T01:51:06.538Z,99298.56
2023-11-30T01:53:37.846Z,99332.63
2023-11-30T01:56:08.874Z,99308.47
2023-11-30T01:58:38.443Z,99300.84
2023-11-30T02:01:06.836Z,99302.47
2023-11-30T02:03:34.765Z,99309.44
2023-11-30T02:06:03.476Z,99295.84
2023-11-30T02:08:31.171Z,99264.47
2023-11-30T02:10:59.479Z,99294.44
2023-11-30T02:13:28.523Z,99319.06
2023-11-30T02:15:56.479Z,99290.44
2023-11-30T02:18:24.148Z,99298.84
2023-11-30T02:20:52.499Z,99327.47
2023-11-30T02:23:21.707Z,99277.75
2023-11-30T02:25:49.361Z,99281.41
2023-11-30T02:28:20.520Z,99307.16
2023-11-30T02:30:49.377Z,99277.16
2023-11-30T02:33:17.613Z,99281.38
2023-11-30T02:35:45.378Z,99275.81
2023-11-30T02:38:13.484Z,99286.31
2023-11-30T02:40:42.560Z,99295.19
2023-11-30T02:43:10.220Z,99262.56
2023-11-30T02:45:37.943Z,99262.81
2023-11-30T02:48:06.594Z,99273.56
2023-11-30T02:50:34.312Z,99276.50
2023-11-30T02:53:02.331Z,99289.03
2023-11-30T02:55:30.639Z,99278.28
2023-11-30T02:57:59.705Z,99292.78
2023-11-30T03:00:27.525Z,99279.19
2023-11-30T03:02:55.272Z,99280.44
2023-11-30T03:05:23.506Z,99243.22
2023-11-30T03:08:12.555Z,99244.41
2023-11-30T03:10:40.249Z,99239.19
2023-11-30T03:13:09.520Z,99230.94
2023-11-30T03:15:45.126Z,99250.84
2023-11-30T03:18:13.640Z,99261.75
2023-11-30T03:20:41.428Z,99243.94
2023-11-30T03:23:09.544Z,99269.56
2023-11-30T03:25:37.943Z,99252.19
2023-11-30T03:28:05.761Z,99242.25
2023-11-30T03:30:35.610Z,99235.88
2023-11-30T03:33:03.354Z,99222.06
2023-11-30T03:35:31.559Z,99228.69
2023-11-30T03:37:59.341Z,99204.69
2023-11-30T03:40:27.568Z,99222.59
2023-11-30T03:43:15.572Z,99233.09
2023-11-30T03:45:44.676Z,99216.81
2023-11-30T03:48:12.657Z,99225.34
2023-11-30T03:50:40.321Z,99243.75
2023-11-30T03:53:20.566Z,99235.25
2023-11-30T03:55:48.215Z,99286.31
2023-11-30T03:58:15.840Z,99256.13
2023-11-30T04:00:45.596Z,99250.28
2023-11-30T04:03:13.263Z,99244.38
2023-11-30T04:05:41.570Z,99235.84
2023-11-30T04:08:09.284Z,99245.00
2023-11-30T04:10:36.914Z,99241.13
2023-11-30T04:13:04.581Z,99228.13
2023-11-30T04:15:32.355Z,99225.22
2023-11-30T04:18:01.492Z,99249.78
2023-11-30T04:20:29.607Z,99255.44
2023-11-30T04:22:57.576Z,99252.28
2023-11-30T04:25:25.630Z,99250.31
2023-11-30T04:27:54.188Z,99237.69
2023-11-30T04:30:21.884Z,99258.94
2023-11-30T04:32:49.648Z,99257.28
2023-11-30T04:35:19.630Z,99253.13
2023-11-30T04:37:47.310Z,99264.69
2023-11-30T04:40:17.786Z,99253.47
2023-11-30T04:42:45.594Z,99259.06
2023-11-30T04:45:13.313Z,99246.25
2023-11-30T04:47:41.655Z,99262.31
2023-11-30T04:50:10.064Z,99247.00
2023-11-30T04:52:39.663Z,99239.97
2023-11-30T04:55:08.862Z,99251.03
2023-11-30T05:00:54.629Z,99215.97
2023-11-30T05:03:22.814Z,99224.84
2023-11-30T05:05:51.655Z,99224.09
2023-11-30T05:08:20.740Z,99237.50
2023-11-30T05:10:48.438Z,99250.88
2023-11-30T05:13:16.644Z,99237.66
2023-11-30T05:15:46.353Z,99216.72
2023-11-30T05:18:15.680Z,99224.53
2023-11-30T05:20:43.423Z,99237.94
2023-11-30T05:23:11.762Z,99220.56
2023-11-30T05:25:40.989Z,99236.13
2023-11-30T05:28:09.658Z,99216.44
2023-11-30T05:30:37.376Z,99219.16
2023-11-30T05:33:05.367Z,99239.53
2023-11-30T05:35:34.256Z,99278.16
2023-11-30T05:38:02.685Z,99262.31
2023-11-30T05:40:30.352Z,99242.00
2023-11-30T05:42:59.744Z,99263.69
2023-11-30T05:45:28.494Z,99259.94
2023-11-30T05:47:56.825Z,99228.28
2023-11-30T05:50:24.806Z,99229.63
2023-11-30T05:52:53.698Z,99225.19
2023-11-30T05:55:21.943Z,99218.84
2023-11-30T05:57:49.706Z,99205.75
2023-11-30T06:00:19.455Z,99228.88
2023-11-30T06:02:47.698Z,99255.09
2023-11-30T06:05:17.801Z,99260.41
2023-11-30T06:07:51.716Z,99238.47
2023-11-30T06:10:19.405Z,99202.78
2023-11-30T06:12:47.787Z,99200.34
2023-11-30T06:15:15.757Z,99232.09
2023-11-30T06:17:44.894Z,99256.16
2023-11-30T06:20:13.938Z,99246.50
2023-11-30T06:22:41.786Z,99241.94
2023-11-30T06:25:10.212Z,99249.97
2023-11-30T06:27:39.048Z,99234.78
2023-11-30T06:30:10.950Z,99227.16
2023-11-30T06:32:39.785Z,99209.31
2023-11-30T06:35:09.779Z,99205.97
2023-11-30T06:37:37.496Z,99234.03
2023-11-30T06:40:07.746Z,99214.41
2023-11-30T06:42:35.611Z,99218.16
2023-11-30T06:45:03.569Z,99228.50
2023-11-30T06:47:31.764Z,99224.59
2023-11-30T06:49:59.537Z,99220.06
2023-11-30T06:52:28.646Z,99247.13
2023-11-30T06:54:57.754Z,99208.94
2023-11-30T06:57:25.512Z,99234.13
2023-11-30T06:59:54.064Z,99243.34
2023-11-30T07:02:22.980Z,99221.25
2023-11-30T07:04:50.910Z,99225.38
2023-11-30T07:07:27.975Z,99238.34
2023-11-30T07:10:03.894Z,99216.31
2023-11-30T07:12:32.210Z,99227.22
2023-11-30T07:15:00.960Z,99221.19
2023-11-30T07:17:28.948Z,99230.78
2023-11-30T07:19:56.579Z,99246.19
2023-11-30T07:22:26.799Z,99256.53
2023-11-30T07:24:54.840Z,99236.47
2023-11-30T07:27:23.951Z,99253.41
2023-11-30T07:29:51.815Z,99256.44
2023-11-30T07:32:19.688Z,99243.81
2023-11-30T07:34:47.816Z,99231.97
2023-11-30T07:37:17.562Z,99245.28
2023-11-30T07:39:45.793Z,99248.59
2023-11-30T07:42:23.833Z,99228.91
2023-11-30T07:44:59.956Z,99215.97
2023-11-30T07:47:27.702Z,99206.78
2023-11-30T07:49:55.842Z,99204.16
2023-11-30T07:52:23.474Z,99225.66
2023-11-30T07:54:51.865Z,99225.88
2023-11-30T07:57:19.609Z,99251.53
2023-11-30T07:59:48.957Z,99225.06
2023-11-30T08:02:25.839Z,99239.13
2023-11-30T08:04:53.549Z,99246.38
2023-11-30T08:07:22.584Z,99268.41
2023-11-30T08:09:50.867Z,99233.47
2023-11-30T08:12:18.613Z,99249.34
2023-11-30T08:14:46.290Z,99245.75
2023-11-30T08:17:15.072Z,99240.22
2023-11-30T08:19:44.243Z,99258.16
2023-11-30T08:22:14.921Z,99253.66
2023-11-30T08:24:43.997Z,99250.44
2023-11-30T08:27:11.917Z,99244.41
2023-11-30T08:29:39.620Z,99261.84
2023-11-30T08:32:08.868Z,99286.22
2023-11-30T08:34:36.843Z,99243.97
2023-11-30T08:37:06.372Z,99270.66
2023-11-30T08:39:34.936Z,99294.16
2023-11-30T08:42:03.501Z,99296.59
2023-11-30T08:44:31.294Z,99289.06
2023-11-30T08:46:58.916Z,99263.91
2023-11-30T08:49:26.536Z,99249.25
2023-11-30T08:51:55.922Z,99243.84
2023-11-30T08:54:25.256Z,99235.06
2023-11-30T08:56:53.263Z,99235.06
2023-11-30T08:59:21.906Z,99247.75
2023-11-30T09:01:50.965Z,99248.84
2023-11-30T09:04:20.057Z,99241.47
2023-11-30T09:06:50.692Z,99284.34
2023-11-30T09:09:18.939Z,99264.81
2023-11-30T09:11:47.915Z,99280.91
2023-11-30T09:14:15.914Z,99267.59
2023-11-30T09:16:43.885Z,99240.69
2023-11-30T09:19:11.945Z,99229.41
2023-11-30T09:21:39.749Z,99216.69
2023-11-30T09:24:08.937Z,99220.78
2023-11-30T09:29:21.946Z,99227.03
2023-11-30T09:31:49.893Z,99238.06
2023-11-30T09:34:17.937Z,99196.03
2023-11-30T09:36:45.856Z,99227.31
2023-11-30T09:42:42.007Z,99198.38
2023-11-30T09:45:11.787Z,99194.81
2023-11-30T09:47:39.856Z,99247.78
2023-11-30T09:50:08.462Z,99228.78
2023-11-30T09:52:39.013Z,99222.91
2023-11-30T09:55:11.718Z,99209.59
2023-11-30T09:57:40.355Z,99201.84
2023-11-30T10:00:12.035Z,99202.53
2023-11-30T10:02:51.846Z,99246.56
2023-11-30T10:05:19.986Z,99267.09
2023-11-30T10:07:47.756Z,99237.09
2023-11-30T10:10:16.033Z,99264.69
2023-11-30T10:12:44.054Z,99228.97
2023-11-30T10:15:12.207Z,99245.03
2023-11-30T10:20:39.990Z,99221.94
2023-11-30T10:23:11.754Z,99206.31
2023-11-30T10:25:40.494Z,99203.84
2023-11-30T10:31:26.011Z,99178.22
2023-11-30T10:33:57.286Z,99166.38
2023-11-30T10:36:28.644Z,99178.00
2023-11-30T10:39:00.036Z,99187.84
2023-11-30T10:41:30.083Z,99229.94
2023-11-30T10:44:00.022Z,99216.00
2023-11-30T10:46:28.368Z,99230.31
2023-11-30T10:48:57.464Z,99201.72
2023-11-30T10:51:26.106Z,99224.25
2023-11-30T10:54:08.792Z,99198.53
2023-11-30T10:56:37.046Z,99198.44
2023-11-30T10:59:05.250Z,99165.75
2023-11-30T11:01:37.104Z,99177.84
2023-11-30T11:04:08.785Z,99187.63
2023-11-30T11:06:38.144Z,99172.88
2023-11-30T11:12:54.061Z,99162.22
2023-11-30T11:15:23.376Z,99153.66
2023-11-30T11:17:53.596Z,99171.22
2023-11-30T11:20:26.155Z,99165.28
2023-11-30T11:22:56.080Z,99142.47
2023-11-30T11:25:24.046Z,99158.31
2023-11-30T11:27:53.036Z,99192.38
2023-11-30T11:30:28.435Z,99156.22
2023-11-30T11:32:59.019Z,99156.16
2023-11-30T11:35:28.204Z,99187.41
2023-11-30T11:37:57.897Z,99165.94
2023-11-30T11:40:26.070Z,99138.97
2023-11-30T11:42:55.533Z,99157.53
2023-11-30T11:45:24.108Z,99169.19
2023-11-30T11:47:51.731Z,99149.47
2023-11-30T11:50:20.130Z,99150.91
2023-11-30T11:52:47.858Z,99178.16
2023-11-30T11:55:16.150Z,99184.34
2023-11-30T11:57:45.193Z,99162.09
2023-11-30T12:00:18.405Z,99168.00
2023-11-30T12:02:47.155Z,99155.47
2023-11-30T12:05:26.484Z,99202.19
2023-11-30T12:08:12.334Z,99162.00
2023-11-30T12:10:41.390Z,99186.38
2023-11-30T12:13:10.108Z,99169.66
2023-11-30T12:15:39.368Z,99181.69
2023-11-30T12:18:08.066Z,99178.06
2023-11-30T12:20:37.136Z,99211.47
2023-11-30T12:23:04.934Z,99208.53
2023-11-30T12:25:34.886Z,99162.69
2023-11-30T12:28:03.160Z,99147.25
2023-11-30T12:30:30.773Z,99130.88
2023-11-30T12:33:00.207Z,99137.34
2023-11-30T12:35:27.978Z,99161.34
2023-11-30T12:37:56.170Z,99132.25
2023-11-30T12:40:23.817Z,99130.28
2023-11-30T12:42:52.224Z,99172.69
2023-11-30T12:45:20.143Z,99159.28
2023-11-30T12:47:48.220Z,99166.47
2023-11-30T12:50:17.419Z,99170.22
2023-11-30T12:52:46.197Z,99183.16
2023-11-30T12:55:14.930Z,99171.53
2023-11-30T12:57:44.022Z,99149.00
2023-11-30T13:00:16.791Z,99141.53
2023-11-30T13:02:46.676Z,99125.94
2023-11-30T13:05:14.817Z,99126.53
2023-11-30T13:07:44.074Z,99133.03
2023-11-30T13:10:13.365Z,99191.13
2023-11-30T13:12:41.774Z,99161.28
2023-11-30T13:15:12.453Z,99181.91
2023-11-30T13:17:41.224Z,99174.53
2023-11-30T13:20:15.302Z,99194.53
2023-11-30T13:25:20.266Z,99182.13
2023-11-30T13:27:59.846Z,99171.66
2023-11-30T13:30:30.068Z,99208.63
2023-11-30T13:32:58.978Z,99182.06
2023-11-30T13:35:27.249Z,99170.31
2023-11-30T13:40:56.239Z,99182.34
2023-11-30T13:43:27.224Z,99162.31
2023-11-30T13:45:55.362Z,99151.75
2023-11-30T13:48:22.955Z,99163.25
2023-11-30T13:50:56.472Z,99151.63
2023-11-30T13:53:29.369Z,99161.84
2023-11-30T13:55:59.236Z,99160.00
2023-11-30T13:58:26.862Z,99173.53
2023-11-30T14:00:55.343Z,99166.88
2023-11-30T14:03:23.064Z,99164.13
2023-11-30T14:05:51.284Z,99168.31
2023-11-30T14:08:18.964Z,99168.94
2023-11-30T14:10:46.858Z,99168.25
2023-11-30T14:13:16.269Z,99160.16
2023-11-30T14:15:43.858Z,99147.78
2023-11-30T14:18:12.367Z,99155.75
2023-11-30T14:20:40.946Z,99134.00
2023-11-30T14:26:18.284Z,99149.66
2023-11-30T14:28:49.545Z,99189.59
2023-11-30T14:31:17.758Z,99178.84
2023-11-30T14:33:46.697Z,99184.25
2023-11-30T14:36:15.314Z,99198.44
2023-11-30T14:38:42.976Z,99172.44
2023-11-30T14:41:11.292Z,99168.56
2023-11-30T14:43:39.899Z,99150.97
2023-11-30T14:46:09.323Z,99189.41
2023-11-30T14:48:36.939Z,99176.59
2023-11-30T14:51:20.372Z,99197.38
2023-11-30T14:53:48.434Z,99177.34
2023-11-30T14:56:16.249Z,99162.56
2023-11-30T14:58:44.327Z,99185.09
2023-11-30T15:01:14.595Z,99186.09
2023-11-30T15:03:43.433Z,99189.97
2023-11-30T15:06:11.328Z,99183.25
2023-11-30T15:08:39.331Z,99185.03
2023-11-30T15:13:50.410Z,99198.97
2023-11-30T15:16:19.507Z,99183.16
2023-11-30T15:18:47.460Z,99167.41
2023-11-30T15:21:16.372Z,99178.03
2023-11-30T15:23:44.482Z,99184.09
2023-11-30T15:26:15.351Z,99177.06
2023-11-30T15:28:43.102Z,99159.31
2023-11-30T15:31:11.362Z,99204.06
2023-11-30T15:33:40.618Z,99229.34
2023-11-30T15:36:09.369Z,99211.78
2023-11-30T15:38:38.887Z,99203.66
2023-11-30T15:41:07.377Z,99184.13
2023-11-30T15:43:35.159Z,99213.06
2023-11-30T15:46:04.460Z,99206.53
2023-11-30T15:48:32.562Z,99212.63
2023-11-30T15:51:03.377Z,99213.00
2023-11-30T15:53:31.229Z,99180.56
2023-11-30T15:56:00.440Z,99165.84
2023-11-30T15:58:28.973Z,99190.22
2023-11-30T16:00:57.426Z,99210.88
2023-11-30T16:03:26.024Z,99216.25
2023-11-30T16:05:53.652Z,99228.03
2023-11-30T16:08:23.383Z,99206.00
2023-11-30T16:10:51.086Z,99224.63
2023-11-30T16:13:21.422Z,99215.97
2023-11-30T16:15:49.274Z,99207.47
2023-11-30T16:18:17.464Z,99192.38
2023-11-30T16:20:45.103Z,99190.56
2023-11-30T16:23:13.445Z,99199.59
2023-11-30T16:25:42.477Z,99201.91
2023-11-30T16:28:12.439Z,99208.63
2023-11-30T16:30:40.115Z,99203.78
2023-11-30T16:33:08.500Z,99187.63
2023-11-30T16:35:36.230Z,99190.72
2023-11-30T16:38:04.463Z,99182.41
2023-11-30T16:40:32.097Z,99183.81
2023-11-30T16:43:01.457Z,99202.22
2023-11-30T16:45:29.140Z,99192.97
2023-11-30T16:47:57.631Z,99171.75
2023-11-30T16:50:25.261Z,99196.69
2023-11-30T16:52:53.133Z,99187.13
2023-11-30T16:55:21.470Z,99196.69
2023-11-30T16:57:49.096Z,99188.78
2023-11-30T17:00:19.537Z,99165.22
2023-11-30T17:02:47.934Z,99194.66
2023-11-30T17:05:16.472Z,99207.31
2023-11-30T17:07:46.319Z,99203.22
2023-11-30T17:10:14.502Z,99193.19
2023-11-30T17:12:42.156Z,99193.94
2023-11-30T17:15:10.484Z,99200.88
2023-11-30T17:17:39.542Z,99195.22
2023-11-30T17:20:08.750Z,99201.09
2023-11-30T17:22:36.603Z,99190.63
2023-11-30T17:25:04.426Z,99200.59
2023-11-30T17:27:32.550Z,99230.38
2023-11-30T17:30:00.452Z,99215.28
2023-11-30T17:32:28.414Z,99203.34
2023-11-30T17:34:57.637Z,99192.94
2023-11-30T17:37:25.508Z,99218.91
2023-11-30T17:39:53.616Z,99219.34
2023-11-30T17:42:22.386Z,99218.66
2023-11-30T17:44:50.538Z,99212.38
2023-11-30T17:50:37.538Z,99210.50
2023-11-30T17:53:05.868Z,99209.44
2023-11-30T17:55:34.540Z,99224.19
2023-11-30T17:58:03.251Z,99236.03
2023-11-30T18:00:31.573Z,99225.06
2023-11-30T18:02:59.887Z,99250.91
2023-11-30T18:05:27.768Z,99248.50
2023-11-30T18:07:58.214Z,99241.25
2023-11-30T18:10:25.813Z,99240.66
2023-11-30T18:12:53.602Z,99238.22
2023-11-30T18:15:21.290Z,99219.69
2023-11-30T18:17:49.007Z,99219.88
2023-11-30T18:20:16.831Z,99229.13
2023-11-30T18:22:44.567Z,99214.75
2023-11-30T18:25:14.042Z,99233.69
2023-11-30T18:27:42.619Z,99243.03
2023-11-30T18:30:11.778Z,99205.25
2023-11-30T18:32:43.101Z,99214.69
2023-11-30T18:35:10.985Z,99245.19
2023-11-30T18:37:39.571Z,99236.88
2023-11-30T18:40:08.476Z,99260.41
2023-11-30T18:42:38.603Z,99248.59
2023-11-30T18:45:07.582Z,99247.59
2023-11-30T18:47:37.995Z,99257.44
2023-11-30T18:50:06.588Z,99278.84
2023-11-30T18:52:34.586Z,99260.19
2023-11-30T18:55:03.638Z,99276.38
2023-11-30T18:57:31.398Z,99266.34
2023-11-30T19:00:01.649Z,99259.66
2023-11-30T19:02:29.474Z,99252.03
2023-11-30T19:04:58.635Z,99256.00
2023-11-30T19:07:26.719Z,99271.28
2023-11-30T19:09:55.651Z,99258.84
2023-11-30T19:12:23.315Z,99272.72
2023-11-30T19:14:51.852Z,99283.94
2023-11-30T19:17:20.957Z,99285.72
2023-11-30T19:19:49.700Z,99293.34
2023-11-30T19:22:37.377Z,99284.78
2023-11-30T19:25:06.673Z,99280.59
2023-11-30T19:27:34.392Z,99311.78
2023-11-30T19:30:02.634Z,99275.50
2023-11-30T19:32:31.842Z,99260.50
2023-11-30T19:34:59.783Z,99253.16
2023-11-30T19:37:27.384Z,99250.41
2023-11-30T19:39:55.693Z,99267.53
2023-11-30T19:42:25.170Z,99271.13
2023-11-30T19:44:53.664Z,99278.00
2023-11-30T19:47:21.369Z,99296.81
2023-11-30T19:49:50.651Z,99297.84
2023-11-30T19:52:18.559Z,99307.53
2023-11-30T19:54:46.723Z,99282.81
2023-11-30T19:57:14.371Z,99277.97
2023-11-30T19:59:42.232Z,99300.13
2023-11-30T20:02:09.875Z,99312.31
2023-11-30T20:04:37.679Z,99318.13
2023-11-30T20:07:06.764Z,99309.94
2023-11-30T20:09:34.775Z,99287.03
2023-11-30T20:12:02.432Z,99277.00
2023-11-30T20:14:30.681Z,99300.63
2023-11-30T20:16:58.942Z,99299.25
2023-11-30T20:19:26.862Z,99317.31
2023-11-30T20:21:54.729Z,99309.97
2023-11-30T20:24:23.845Z,99300.50
2023-11-30T20:26:53.690Z,99298.16
2023-11-30T20:29:21.270Z,99292.13
2023-11-30T20:32:02.705Z,99298.25
2023-11-30T20:34:30.349Z,99302.75
2023-11-30T20:36:59.203Z,99284.09
2023-11-30T20:39:28.760Z,99275.28
2023-11-30T20:41:56.408Z,99273.44
2023-11-30T20:44:24.018Z,99281.44
2023-11-30T20:46:51.749Z,99304.31
2023-11-30T20:49:20.643Z,99302.84
2023-11-30T20:51:48.503Z,99307.66
2023-11-30T20:54:16.220Z,99294.06
2023-11-30T21:00:08.725Z,99315.00
2023-11-30T21:02:36.670Z,99322.94
2023-11-30T21:05:04.787Z,99293.63
2023-11-30T21:07:32.726Z,99292.53
2023-11-30T21:10:00.827Z,99285.09
2023-11-30T21:12:28.772Z,99307.31
2023-11-30T21:14:56.798Z,99295.09
2023-11-30T21:17:25.993Z,99320.28
2023-11-30T21:19:53.755Z,99311.19
2023-11-30T21:22:21.393Z,99326.91
2023-11-30T21:24:49.789Z,99319.63
2023-11-30T21:27:17.476Z,99322.56
2023-11-30T21:29:45.777Z,99319.22
2023-11-30T21:32:13.991Z,99316.72
2023-11-30T21:34:43.815Z,99300.31
2023-11-30T21:37:11.721Z,99317.75
2023-11-30T21:39:39.795Z,99336.34
2023-11-30T21:42:08.580Z,99352.66
2023-11-30T21:44:39.388Z,99352.56
2023-11-30T21:47:07.698Z,99359.63
2023-11-30T21:49:35.873Z,99355.56
2023-11-30T21:52:05.711Z,99344.59
2023-11-30T21:54:33.375Z,99339.38
2023-11-30T21:57:01.794Z,99338.34
2023-11-30T21:59:29.434Z,99334.13
2023-11-30T22:01:58.034Z,99324.16
2023-11-30T22:04:26.037Z,99332.16
2023-11-30T22:06:53.868Z,99346.00
2023-11-30T22:09:22.922Z,99353.38
2023-11-30T22:11:50.943Z,99320.94
2023-11-30T22:14:18.580Z,99327.84
2023-11-30T22:16:46.899Z,99317.72
2023-11-30T22:19:14.631Z,99348.75
2023-11-30T22:21:42.247Z,99349.34
2023-11-30T22:24:16.822Z,99329.88
2023-11-30T22:26:45.826Z,99363.00
2023-11-30T22:29:13.409Z,99338.56
2023-11-30T22:31:41.848Z,99320.59
2023-11-30T22:34:09.634Z,99355.50
2023-11-30T22:36:37.894Z,99371.47
2023-11-30T22:39:05.623Z,99350.16
2023-11-30T22:41:33.224Z,99359.47
2023-11-30T22:44:02.212Z,99371.69
2023-11-30T22:46:29.938Z,99347.44
2023-11-30T22:48:57.636Z,99351.84
2023-11-30T22:51:25.343Z,99348.31
2023-11-30T22:53:53.877Z,99380.00
2023-11-30T22:56:23.260Z,99382.88
2023-11-30T22:58:51.893Z,99358.06
2023-11-30T23:01:22.080Z,99387.31
2023-11-30T23:03:50.134Z,99365.50
2023-11-30T23:06:18.906Z,99360.75
2023-11-30T23:08:47.675Z,99376.66
2023-11-30T23:11:15.291Z,99356.47
2023-11-30T23:13:43.887Z,99360.69
2023-11-30T23:16:12.943Z,99353.53
2023-11-30T23:18:42.940Z,99355.66
2023-11-30T23:21:10.601Z,99369.44
2023-11-30T23:23:38.922Z,99361.69
2023-11-30T23:26:06.765Z,99360.00
2023-11-30T23:28:35.903Z,99360.03
2023-11-30T23:31:03.624Z,99379.50
2023-11-30T23:33:31.945Z,99364.19
2023-11-30T23:36:00.978Z,99397.84
2023-11-30T23:38:28.602Z,99382.03
2023-11-30T23:40:56.912Z,99378.63
2023-11-30T23:43:24.609Z,99373.44
2023-11-30T23:45:52.934Z,99378.22
2023-11-30T23:48:20.553Z,99391.94
2023-11-30T23:50:48.907Z,99389.72
2023-11-30T23:53:17.942Z,99384.94
2023-11-30T23:55:45.925Z,99383.09
2023-11-30T23:58:13.616Z,99396.75
